Weather at Seapuit Heliport

Public forecast

Using degrees Fahrenheit for public forecast. Weather courtesy of forecast.io.

Closest aviation weather report (METAR) to Seapuit Heliport

Closest report is Cape Cod Coast Guard Air Station, 5.5 nm (10.2 km) WNW. Retrieved 2020/09/27 01:45 UTC (53 minutes ago):

KFMH 270145Z 14004KT 10SM FEW009 SCT019 17/17 A3010

Closest aviation forecast (TAF) to Seapuit Heliport

Closest forecast is Cape Cod Coast Guard Air Station, 5.5 nm (10.2 km) WNW. Retrieved 2020-09-27 00:42 UTC (2 hours ago):

TAF KFMH 262339Z 2700/2724 17004KT 5SM BR BKN015 FM270200 17004KT 3SM BR BKN003 FM270600 19004KT 2SM BR OVC003 FM271400 18009KT P6SM BKN025